Terminal Aerodrome Forecast
Issued by NWS

Home | Current Version | Previous Version | Text Only | Print | Product List | Glossary On
Versions: 1 2 3 4 5 6 7 8 9 10 11 12 13 14 15 16 17 18 19 20
930
FTUS46 KEKA 251452 AAA
TAFCEC
TAF AMD
KCEC 251452Z 2515/2612 16012KT P6SM VCSH SCT025 OVC035
     FM251900 17014G24KT 4SM RA BR OVC025
     FM260200 21012G22KT 3SM -SHRA OVC015
     FM260500 31010KT P6SM -SHRA BKN035=

USA.gov is the U.S. government's official web portal to all federal, state and local government web resources and services.